• Join FlightAware (Why Join?)
  • Login
  • US Flag 
09:58AM EDT


 

Airport Tracker/Info


-or-


 

Live Flight TrackerFlight Track Log ✈ FLG3432 ✈ 01-Jul-2013 ✈ KSLC - KDFW

Flight Track Log - Related Links

Times and Time Zones

All times are in EDT time to prevent confusion due to time zone crossing. See the FLG3432 flight status page for this flight to view local times or setup timezone preferences in your user account.

Time Position Orientation Groundspeed Altitude Reporting Facility
EDT Latitude Longitude Course Direction KTS MPH feet Rate Location/Type
07:32PM 40.8153 -111.9792 163° South 187 215 4,900  Level Salt Lake Center
07:33PM 40.8525 -111.9836 355° North 192 221 6,000 1,260 Climbing Salt Lake Center
07:34PM 40.8836 -111.9875 355° North 214 246 6,500 1,440 Climbing Salt Lake Center
07:35PM 40.9522 -111.9967 354° North 244 281 8,300 2,040 Climbing Salt Lake Center
07:35PM 41.0028 -112.0033 354° North 258 297 9,700 1,860 Climbing Salt Lake Center
07:36PM 41.1173 -111.7692 108° East  Level FlightAware Approximate
07:37PM 41.0008 -111.7159 163° South  Level FlightAware Approximate
07:37PM 41.0547 -111.9192 51° Northeast 275 316 12,200  Level Salt Lake Center
07:38PM 40.8824 -111.6672 163° South  Level FlightAware Approximate
07:38PM 40.9950 -111.8253 130° Southeast 295 339 14,500  Level Salt Lake Center
07:39PM 40.9342 -111.7406 134° Southeast 320 368 15,800 1,200 Climbing Salt Lake Center
07:40PM 40.8667 -111.6464 133° Southeast 350 403 17,100 1,200 Climbing Salt Lake Center
07:41PM 40.7939 -111.5458 134° Southeast 377 434 18,400 1,560 Climbing Salt Lake Center
07:42PM 40.7053 -111.4225 133° Southeast 386 444 20,400 1,680 Climbing Salt Lake Center
07:43PM 40.6611 -111.2925 114° Southeast 390 449 21,900 1,440 Climbing Salt Lake Center
07:44PM 40.6222 -111.1597 111° Southeast 389 448 23,400 1,200 Climbing Salt Lake Center
07:45PM 40.6033 -111.0147 100° East 400 460 24,500 1,200 Climbing Salt Lake Center
07:46PM 40.6011 -110.8658 91° East 407 468 25,900 1,140 Climbing Salt Lake Center
07:47PM 40.6075 -110.7139 87° East 416 479 26,900 780 Climbing Salt Lake Center
07:48PM 40.5856 -110.5497 100° East 438 504 27,600 960 Climbing Salt Lake Center
07:49PM 40.5236 -110.3739 115° Southeast 459 528 28,900 660 Climbing Salt Lake Center
07:50PM 40.4619 -110.2336 120° Southeast 464 534 29,000 240 Climbing Salt Lake Center
07:51PM 40.3911 -110.0742 120° Southeast 454 522 29,500 900 Climbing Salt Lake Center
07:52PM 40.3297 -109.9347 120° Southeast 460 529 30,900 1,200 Climbing Salt Lake Center
07:53PM 40.2575 -109.7706 120° Southeast 464 534 32,100 1,200 Climbing Salt Lake Center
07:54PM 40.1961 -109.6331 120° Southeast 460 529 33,400 1,140 Climbing Salt Lake Center
07:55PM 40.1361 -109.4953 120° Southeast 456 525 34,500 1,020 Climbing Salt Lake Center
07:56PM 40.0658 -109.3375 120° Southeast 450 518 35,600 900 Climbing Salt Lake Center
07:57PM 40.0056 -109.2031 120° Southeast 449 517 36,400 660 Climbing Salt Lake Center
07:58PM 39.9344 -109.0433 120° Southeast 452 520 37,000 240 Climbing Salt Lake Center
08:00PM 39.8719 -108.9039 120° Southeast 462 532 37,000  Level Salt Lake Center
08:01PM 39.7972 -108.7353 120° Southeast 475 547 37,000  Level Salt Lake Center
08:02PM 39.7294 -108.5861 121° Southeast 489 563 37,000  Level Salt Lake Center
08:03PM 39.6606 -108.4400 121° Southeast 487 560 37,000  Level Denver Center
08:04PM 39.5803 -108.2694 121° Southeast 493 567 37,000  Level Denver Center
08:05PM 39.5150 -108.1261 121° Southeast 482 555 37,000  Level Denver Center
08:06PM 39.4372 -107.9597 121° Southeast 484 557 37,000  Level Denver Center
08:07PM 39.3706 -107.8175 121° Southeast 483 556 37,000  Level Denver Center
08:08PM 39.2933 -107.6511 121° Southeast 484 557 37,000  Level Denver Center
08:09PM 39.2267 -107.5122 122° Southeast 479 551 37,000  Level Denver Center
08:10PM 39.1486 -107.3486 122° Southeast 480 552 37,000  Level Denver Center
08:11PM 39.0831 -107.2097 121° Southeast 475 547 37,000  Level Denver Center
08:12PM 39.0050 -107.0472 122° Southeast 477 549 37,000  Level Denver Center
08:13PM 38.9378 -106.9083 122° Southeast 478 550 37,000  Level Denver Center
08:14PM 38.8617 -106.7536 122° Southeast 481 554 37,000  Level Denver Center
08:15PM 38.7903 -106.6078 122° Southeast 486 559 37,000  Level Denver Center
08:16PM 38.7183 -106.4608 122° Southeast 490 564 37,000  Level Denver Center
08:17PM 38.6475 -106.3153 122° Southeast 480 552 37,000  Level Denver Center
08:18PM 38.5722 -106.1614 122° Southeast 480 552 37,000  Level Denver Center
08:19PM 38.4928 -106.0006 122° Southeast 478 550 37,000  Level Denver Center
08:20PM 38.4250 -105.8628 122° Southeast 480 552 37,000  Level Denver Center
08:21PM 38.3442 -105.7025 123° Southeast 480 552 37,000  Level Denver Center
08:22PM 38.2758 -105.5661 123° Southeast 478 550 37,000  Level Denver Center
08:23PM 38.1961 -105.4067 122° Southeast 478 550 37,000  Level Denver Center
08:24PM 38.1253 -105.2700 123° Southeast 482 555 37,000  Level Denver Center
08:25PM 38.0447 -105.1089 122° Southeast 484 557 37,000  Level Denver Center
08:26PM 37.9747 -104.9731 123° Southeast 482 555 37,000  Level Denver Center
08:27PM 37.9039 -104.8342 123° Southeast 485 558 37,000  Level Denver Center
08:28PM 37.8200 -104.6728 123° Southeast 491 565 37,000  Level Denver Center
08:30PM 37.7483 -104.5331 123° Southeast 495 570 37,000  Level Denver Center
08:31PM 37.6642 -104.3728 124° Southeast 493 567 37,000  Level Denver Center
08:32PM 37.5919 -104.2364 124° Southeast 491 565 37,000  Level Denver Center
08:33PM 37.5078 -104.0797 124° Southeast 493 567 37,000  Level Denver Center
08:34PM 37.4281 -103.9219 122° Southeast 494 568 37,000  Level Denver Center
08:35PM 37.3572 -103.7878 124° Southeast 485 558 37,000  Level Denver Center
08:36PM 37.2750 -103.6317 123° Southeast 482 555 37,000  Level Denver Center
08:37PM 37.1981 -103.5011 126° Southeast 485 558 37,000  Level Denver Center
08:38PM 37.1156 -103.3747 129° Southeast 488 562 37,000  Level Denver Center
08:39PM 37.0189 -103.2261 129° Southeast 493 567 37,000  Level Albuquerque Center
08:40PM 36.9350 -103.0969 129° Southeast 499 574 37,000  Level Albuquerque Center
08:41PM 36.8375 -102.9444 129° Southeast 502 578 37,000  Level Albuquerque Center
08:42PM 36.7525 -102.8131 129° Southeast 506 582 37,000  Level Albuquerque Center
08:43PM 36.6531 -102.6594 129° Southeast 508 585 37,000  Level Albuquerque Center
08:44PM 36.5736 -102.5383 129° Southeast 511 588 37,000  Level Albuquerque Center
08:45PM 36.4847 -102.4031 129° Southeast 508 585 37,000  Level Albuquerque Center
08:46PM 36.3967 -102.2686 129° Southeast 503 579 37,000  Level Albuquerque Center
08:47PM 36.2892 -102.1064 129° Southeast 506 582 37,000  Level Albuquerque Center
08:48PM 36.2003 -101.9714 129° Southeast 506 582 37,000  Level Albuquerque Center
08:49PM 36.1103 -101.8369 130° Southeast 506 582 37,000  Level Albuquerque Center
08:50PM 36.0200 -101.7019 130° Southeast 506 582 37,000  Level Albuquerque Center
08:51PM 35.9292 -101.5656 129° Southeast 509 586 37,000  Level Albuquerque Center
08:52PM 35.8392 -101.4303 129° Southeast 509 586 37,000  Level Albuquerque Center
08:53PM 35.7497 -101.2922 129° Southeast 511 588 37,000  Level Albuquerque Center
08:54PM 35.6636 -101.1539 127° Southeast 508 585 37,000  Level Albuquerque Center
08:55PM 35.5761 -101.0153 128° Southeast 509 586 37,000  Level Albuquerque Center
08:56PM 35.4886 -100.8775 128° Southeast 508 585 37,000  Level Albuquerque Center
08:57PM 35.4003 -100.7394 128° Southeast 511 588 37,000  Level Albuquerque Center
08:58PM 35.2975 -100.5792 128° Southeast 513 590 37,000  Level Albuquerque Center
08:59PM 35.2092 -100.4428 128° Southeast 513 590 37,000  Level Albuquerque Center
09:00PM 35.1225 -100.3069 128° Southeast 510 587 37,000  Level Albuquerque Center
09:01PM 35.0347 -100.1714 128° Southeast 509 586 37,000  Level Albuquerque Center
09:02PM 34.9461 -100.0353 128° Southeast 511 588 37,000  Level Albuquerque Center
09:03PM 34.8581 -99.9000 128° Southeast 511 588 37,000 -480 Level Albuquerque Center
09:04PM 34.7689 -99.7653 129° Southeast 511 588 36,100 -960 Descending Albuquerque Center
09:05PM 34.6803 -99.6286 128° Southeast 514 592 35,100 -1,380 Descending Albuquerque Center
09:06PM 34.5767 -99.4708 129° Southeast 502 578 33,300 -1,620 Descending Albuquerque Center
09:07PM 34.4861 -99.3333 129° Southeast 504 580 31,800 -1,500 Descending Fort Worth Center
09:08PM 34.4003 -99.2056 129° Southeast 499 574 30,300 -1,320 Descending Fort Worth Center
09:09PM 34.3247 -99.1008 131° Southeast 489 563 29,200 -1,080 Descending Fort Worth Center
09:10PM 34.2489 -98.9889 129° Southeast 456 525 28,200 -1,020 Descending Fort Worth Center
09:11PM 34.1731 -98.8719 128° Southeast 444 511 27,200 -1,260 Descending Fort Worth Center
09:12PM 34.0850 -98.7400 129° Southeast 444 511 25,700 -1,500 Descending Fort Worth Center
09:13PM 34.0131 -98.6289 128° Southeast 444 511 24,200 -900 Descending Fort Worth Center
09:14PM 33.9453 -98.5175 126° Southeast 427 491 24,000 -120 Descending Fort Worth Center
09:15PM 33.8731 -98.4142 130° Southeast 413 475 24,000  Level Fort Worth Center
09:16PM 33.8008 -98.2983 127° Southeast 413 475 24,000 -600 Level Fort Worth Center
09:17PM 33.7283 -98.1928 130° Southeast 440 506 22,800 -1,860 Descending Fort Worth Center
09:18PM 33.6458 -98.0672 128° Southeast 451 519 20,300 -2,400 Descending Fort Worth Center
09:19PM 33.5689 -97.9544 129° Southeast 445 512 18,100 -1,980 Descending Fort Worth Center
09:20PM 33.4964 -97.8444 128° Southeast 434 499 16,400 -1,800 Descending Fort Worth Center
09:21PM 33.4342 -97.7519 129° Southeast 413 475 14,600 -1,860 Descending Fort Worth Center
09:22PM 33.3633 -97.6472 129° Southeast 388 447 12,700 -1,740 Descending Fort Worth Center
09:23PM 33.3000 -97.5500 128° Southeast 334 384 11,200 -900 Descending Dallas / Fort Worth TRACON
09:24PM 33.2500 -97.4667 126° Southeast 307 353 11,000 -60 Descending Dallas / Fort Worth TRACON
09:25PM 33.1833 -97.4000 140° Southeast 304 350 11,100  Climbing Dallas / Fort Worth TRACON
09:26PM 33.1167 -97.3333 140° Southeast 310 357 11,100  Level Dallas / Fort Worth TRACON
09:27PM 33.0667 -97.2667 132° Southeast 313 360 11,100 -60 Level Dallas / Fort Worth TRACON
09:28PM 33.0064 -97.2003 137° Southeast 303 349 11,000 -180 Descending Fort Worth Center
09:29PM 32.9417 -97.1658 156° South 294 338 10,800 -900 Descending Fort Worth Center
09:30PM 32.8644 -97.1686 182° South 266 306 9,300 -1,500 Descending Fort Worth Center
09:31PM 32.7933 -97.1686 180° South 261 300 7,800 -1,500 Descending Fort Worth Center
09:32PM 32.7286 -97.1567 171° South 246 283 6,300 -1,380 Descending Fort Worth Center
09:33PM 32.6833 -97.1000 134° Southeast 224 258 5,100 -960 Descending Dallas / Fort Worth TRACON
09:34PM 32.6833 -97.0333 90° East 216 249 4,500 -720 Descending Dallas / Fort Worth TRACON